createdAt,value
2022-09-21T00:01:21.631Z,12.47
2022-09-21T00:03:51.761Z,12.50
2022-09-21T00:06:19.723Z,12.49
2022-09-21T00:08:47.350Z,12.49
2022-09-21T00:11:21.691Z,12.48
2022-09-21T00:13:51.947Z,12.48
2022-09-21T00:16:18.502Z,12.47
2022-09-21T00:18:45.058Z,12.46
2022-09-21T00:21:14.164Z,12.45
2022-09-21T00:23:42.016Z,12.44
2022-09-21T00:26:14.904Z,12.41
2022-09-21T00:28:42.296Z,12.42
2022-09-21T00:31:12.393Z,12.41
2022-09-21T00:33:40.957Z,12.40
2022-09-21T00:36:10.751Z,12.40
2022-09-21T00:38:38.088Z,12.41
2022-09-21T00:41:06.798Z,12.40
2022-09-21T00:44:28.596Z,12.35
2022-09-21T00:47:00.972Z,12.40
2022-09-21T00:49:28.378Z,12.40
2022-09-21T00:51:57.086Z,12.39
2022-09-21T00:54:29.821Z,12.36
2022-09-21T00:56:59.914Z,12.37
2022-09-21T00:59:30.079Z,12.37
2022-09-21T01:01:58.555Z,12.35
2022-09-21T01:04:26.815Z,12.36
2022-09-21T01:06:54.025Z,12.34
2022-09-21T01:09:20.800Z,12.34
2022-09-21T01:12:03.055Z,12.30
2022-09-21T01:14:44.441Z,12.30
2022-09-21T01:17:38.244Z,12.26
2022-09-21T01:20:42.628Z,12.22
2022-09-21T01:23:21.412Z,12.19
2022-09-21T01:26:01.478Z,12.15
2022-09-21T01:28:46.745Z,12.10
2022-09-21T01:31:21.766Z,12.11
2022-09-21T01:33:54.307Z,12.08
2022-09-21T01:36:25.810Z,12.07
2022-09-21T01:38:58.479Z,12.05
2022-09-21T01:41:28.787Z,12.04
2022-09-21T01:44:02.539Z,12.01
2022-09-21T01:46:32.236Z,11.99
2022-09-21T01:49:05.045Z,11.96
2022-09-21T01:51:34.615Z,11.93
2022-09-21T01:54:24.578Z,11.88
2022-09-21T01:57:01.728Z,11.89
2022-09-21T01:59:38.161Z,11.86
2022-09-21T02:02:36.082Z,11.83
2022-09-21T02:05:04.772Z,11.85
2022-09-21T02:07:33.695Z,11.85
2022-09-21T02:10:03.083Z,11.85
2022-09-21T02:12:31.535Z,11.85
2022-09-21T02:14:58.279Z,11.84
2022-09-21T02:17:50.752Z,11.81
2022-09-21T02:20:30.320Z,11.86
2022-09-21T02:23:06.622Z,11.84
2022-09-21T02:25:45.867Z,11.83
2022-09-21T02:28:18.465Z,11.82
2022-09-21T02:30:55.795Z,11.81
2022-09-21T02:33:41.464Z,11.78
2022-09-21T02:36:33.812Z,11.79
2022-09-21T02:39:10.133Z,11.77
2022-09-21T02:41:57.511Z,11.78
2022-09-21T02:44:32.629Z,11.78
2022-09-21T02:47:13.711Z,11.73
2022-09-21T02:49:45.901Z,11.74
2022-09-21T02:52:15.859Z,11.73
2022-09-21T02:54:47.251Z,11.73
2022-09-21T02:57:17.200Z,11.71
2022-09-21T02:59:44.118Z,11.71
2022-09-21T03:02:12.557Z,11.70
2022-09-21T03:04:41.330Z,11.68
2022-09-21T03:07:09.093Z,11.68
2022-09-21T03:09:36.265Z,11.68
2022-09-21T03:12:02.867Z,11.66
2022-09-21T03:14:29.652Z,11.65
2022-09-21T03:16:56.131Z,11.62
2022-09-21T03:19:22.647Z,11.61
2022-09-21T03:21:49.131Z,11.61
2022-09-21T03:24:35.617Z,11.57
2022-09-21T03:27:02.099Z,11.57
2022-09-21T03:29:28.657Z,11.56
2022-09-21T03:31:56.095Z,11.55
2022-09-21T03:34:22.993Z,11.53
2022-09-21T03:36:49.507Z,11.51
2022-09-21T03:39:15.988Z,11.50
2022-09-21T03:41:42.472Z,11.47
2022-09-21T03:44:08.986Z,11.44
2022-09-21T03:46:35.562Z,11.40
2022-09-21T03:49:03.101Z,11.36
2022-09-21T03:51:31.566Z,11.33
2022-09-21T03:53:58.217Z,11.29
2022-09-21T03:56:24.747Z,11.27
2022-09-21T03:58:51.294Z,11.25
2022-09-21T04:01:17.851Z,11.25
2022-09-21T04:03:44.338Z,11.23
2022-09-21T04:06:12.148Z,11.22
2022-09-21T04:08:39.626Z,11.22
2022-09-21T04:11:17.798Z,11.20
2022-09-21T04:13:45.382Z,11.24
2022-09-21T04:16:11.980Z,11.25
2022-09-21T04:18:38.710Z,11.25
2022-09-21T04:21:06.226Z,11.26
2022-09-21T04:23:32.998Z,11.26
2022-09-21T04:26:00.098Z,11.26
2022-09-21T04:28:26.710Z,11.27
2022-09-21T04:30:55.804Z,11.28
2022-09-21T04:33:23.916Z,11.28
2022-09-21T04:35:56.928Z,11.25
2022-09-21T04:38:23.417Z,11.26
2022-09-21T04:40:59.560Z,11.24
2022-09-21T04:43:26.180Z,11.24
2022-09-21T04:45:52.747Z,11.21
2022-09-21T04:48:19.285Z,11.17
2022-09-21T04:50:49.905Z,11.12
2022-09-21T04:53:16.980Z,11.10
2022-09-21T04:55:45.444Z,11.06
2022-09-21T04:58:11.912Z,11.04
2022-09-21T05:00:38.470Z,11.03
2022-09-21T05:03:04.941Z,11.01
2022-09-21T05:05:32.071Z,10.99
2022-09-21T05:07:58.612Z,10.98
2022-09-21T05:10:25.232Z,10.96
2022-09-21T05:12:52.658Z,10.94
2022-09-21T05:15:19.404Z,10.92
2022-09-21T05:17:46.746Z,10.91
2022-09-21T05:20:13.368Z,10.89
2022-09-21T05:22:39.942Z,10.90
2022-09-21T05:25:07.338Z,10.88
2022-09-21T05:27:33.820Z,10.88
2022-09-21T05:30:00.591Z,10.88
2022-09-21T05:32:31.352Z,10.86
2022-09-21T05:35:15.074Z,10.85
2022-09-21T05:37:53.797Z,10.87
2022-09-21T05:40:20.867Z,10.89
2022-09-21T05:42:47.720Z,10.91
2022-09-21T05:45:16.461Z,10.90
2022-09-21T05:48:11.149Z,10.89
2022-09-21T05:50:56.305Z,10.93
2022-09-21T05:53:44.941Z,10.93
2022-09-21T05:56:22.522Z,10.96
2022-09-21T05:59:16.914Z,10.97
2022-09-21T06:02:03.519Z,11.00
2022-09-21T06:04:30.430Z,11.05
2022-09-21T06:06:56.921Z,11.08
2022-09-21T06:09:25.885Z,11.12
2022-09-21T06:11:52.662Z,11.16
2022-09-21T06:14:24.684Z,11.19
2022-09-21T06:16:52.480Z,11.24
2022-09-21T06:19:19.143Z,11.27
2022-09-21T06:21:45.733Z,11.31
2022-09-21T06:24:12.241Z,11.36
2022-09-21T06:26:38.750Z,11.39
2022-09-21T06:29:05.274Z,11.45
2022-09-21T06:31:31.802Z,11.49
2022-09-21T06:33:58.284Z,11.54
2022-09-21T06:36:24.792Z,11.58
2022-09-21T06:38:51.300Z,11.63
2022-09-21T06:41:21.419Z,11.68
2022-09-21T06:43:48.256Z,11.72
2022-09-21T06:46:15.123Z,11.76
2022-09-21T06:48:41.723Z,11.81
2022-09-21T06:51:08.284Z,11.85
2022-09-21T06:53:35.264Z,11.90
2022-09-21T06:56:08.110Z,11.92
2022-09-21T06:58:35.179Z,11.98
2022-09-21T07:01:12.643Z,12.02
2022-09-21T07:03:40.489Z,12.09
2022-09-21T07:06:08.739Z,12.14
2022-09-21T07:11:24.056Z,12.25
2022-09-21T07:13:50.867Z,12.30
2022-09-21T07:16:17.409Z,12.34
2022-09-21T07:18:44.306Z,12.40
2022-09-21T07:21:11.848Z,12.45
2022-09-21T07:23:38.469Z,12.50
2022-09-21T07:26:08.203Z,12.54
2022-09-21T07:28:35.663Z,12.59
2022-09-21T07:31:16.848Z,12.61
2022-09-21T07:33:46.571Z,12.70
2022-09-21T07:36:13.338Z,12.75
2022-09-21T07:38:43.615Z,12.80
2022-09-21T07:41:13.092Z,12.84
2022-09-21T07:43:40.473Z,12.90
2022-09-21T07:46:09.408Z,12.95
2022-09-21T07:48:36.201Z,13.00
2022-09-21T07:51:06.175Z,13.04
2022-09-21T07:53:37.218Z,13.08
2022-09-21T07:56:05.642Z,13.15
2022-09-21T07:58:51.273Z,13.21
2022-09-21T08:01:18.058Z,13.26
2022-09-21T08:03:44.729Z,13.31
2022-09-21T08:06:11.292Z,13.36
2022-09-21T08:08:37.824Z,13.40
2022-09-21T08:11:07.719Z,13.46
2022-09-21T08:13:34.897Z,13.50
2022-09-21T08:16:02.578Z,13.55
2022-09-21T08:18:30.028Z,13.61
2022-09-21T08:21:00.825Z,13.65
2022-09-21T08:23:29.550Z,13.71
2022-09-21T08:26:03.463Z,13.74
2022-09-21T08:28:31.271Z,13.82
2022-09-21T08:31:01.857Z,13.87
2022-09-21T08:33:29.812Z,13.92
2022-09-21T08:35:59.885Z,13.98
2022-09-21T08:38:27.645Z,14.03
2022-09-21T08:40:54.299Z,14.08
2022-09-21T08:43:36.836Z,14.10
2022-09-21T08:46:11.017Z,14.16
2022-09-21T08:48:46.940Z,14.22
2022-09-21T08:51:22.134Z,14.27
2022-09-21T08:53:52.669Z,14.31
2022-09-21T08:56:22.120Z,14.37
2022-09-21T08:58:48.817Z,14.42
2022-09-21T09:01:27.699Z,14.46
2022-09-21T09:03:56.880Z,14.53
2022-09-21T09:06:28.146Z,14.57
2022-09-21T09:09:23.872Z,14.64
2022-09-21T09:12:08.598Z,14.72
2022-09-21T09:14:56.725Z,14.79
2022-09-21T09:17:33.509Z,14.87
2022-09-21T09:20:12.413Z,14.92
2022-09-21T09:22:50.277Z,14.96
2022-09-21T09:25:21.120Z,15.04
2022-09-21T09:27:53.365Z,15.11
2022-09-21T09:30:24.779Z,15.17
2022-09-21T09:33:08.611Z,15.22
2022-09-21T09:35:40.514Z,15.28
2022-09-21T09:38:28.225Z,15.29
2022-09-21T09:41:16.109Z,15.35
2022-09-21T09:43:55.944Z,15.40
2022-09-21T09:46:32.747Z,15.46
2022-09-21T09:49:12.275Z,15.49
2022-09-21T09:51:40.589Z,15.57
2022-09-21T09:54:14.486Z,15.57
2022-09-21T09:56:41.751Z,15.62
2022-09-21T09:59:18.426Z,15.66
2022-09-21T10:01:47.476Z,15.76
2022-09-21T10:04:17.617Z,15.89
2022-09-21T10:06:46.656Z,16.03
2022-09-21T10:09:33.898Z,16.15
2022-09-21T10:12:09.543Z,16.32
2022-09-21T10:14:36.896Z,16.49
2022-09-21T10:17:08.291Z,16.66
2022-09-21T10:19:35.311Z,16.89
2022-09-21T10:22:04.902Z,17.08
2022-09-21T10:24:35.853Z,17.27
2022-09-21T10:27:15.835Z,17.41
2022-09-21T10:29:46.202Z,17.60
2022-09-21T10:32:14.946Z,17.77
2022-09-21T10:34:59.500Z,17.88
2022-09-21T10:37:42.670Z,17.98
2022-09-21T10:40:21.643Z,18.02
2022-09-21T10:42:50.449Z,18.13
2022-09-21T10:45:25.229Z,18.23
2022-09-21T10:48:08.584Z,18.37
2022-09-21T10:50:41.429Z,18.55
2022-09-21T10:53:10.608Z,18.73
2022-09-21T10:55:58.159Z,18.95
2022-09-21T10:58:32.396Z,19.21
2022-09-21T11:01:20.389Z,19.41
2022-09-21T11:04:08.749Z,19.71
2022-09-21T11:06:43.498Z,20.08
2022-09-21T11:09:12.715Z,20.52
2022-09-21T11:12:07.595Z,21.07
2022-09-21T11:14:37.148Z,21.81
2022-09-21T11:17:20.066Z,22.57
2022-09-21T11:19:57.343Z,23.30
2022-09-21T11:22:40.911Z,24.23
2022-09-21T11:25:25.761Z,25.10
2022-09-21T11:28:02.288Z,25.85
2022-09-21T11:30:46.521Z,26.54
2022-09-21T11:33:32.031Z,27.21
2022-09-21T11:36:18.114Z,27.78
2022-09-21T11:38:53.986Z,28.32
2022-09-21T11:41:59.312Z,28.86
2022-09-21T11:44:25.747Z,29.35
2022-09-21T11:47:17.756Z,29.75
2022-09-21T11:50:26.391Z,30.14
2022-09-21T11:52:51.290Z,30.52
2022-09-21T11:55:37.023Z,30.69
2022-09-21T11:58:29.641Z,30.97
2022-09-21T12:01:14.939Z,31.31
2022-09-21T12:04:15.045Z,31.59
2022-09-21T12:07:01.132Z,31.94
2022-09-21T12:10:04.401Z,32.20
2022-09-21T12:12:41.909Z,32.51
2022-09-21T12:15:20.043Z,32.78
2022-09-21T12:18:14.974Z,32.98
2022-09-21T12:21:12.833Z,33.16
2022-09-21T12:23:51.730Z,33.19
2022-09-21T12:26:22.376Z,33.16
2022-09-21T12:29:01.190Z,33.10
2022-09-21T12:31:42.556Z,33.18
2022-09-21T12:34:22.617Z,33.31
2022-09-21T12:37:07.508Z,33.52
2022-09-21T12:39:49.008Z,33.77
2022-09-21T12:42:27.739Z,34.02
2022-09-21T12:45:21.062Z,34.27
2022-09-21T12:47:59.314Z,34.52
2022-09-21T12:50:41.256Z,34.67
2022-09-21T12:53:18.917Z,34.88
2022-09-21T12:55:54.378Z,34.94
2022-09-21T12:58:41.252Z,35.04
2022-09-21T13:01:23.244Z,35.14
2022-09-21T13:04:03.027Z,35.23
2022-09-21T13:06:54.235Z,35.32
2022-09-21T13:09:22.406Z,35.41
2022-09-21T13:12:00.415Z,35.38
2022-09-21T13:14:34.776Z,35.51
2022-09-21T13:17:03.426Z,35.63
2022-09-21T13:19:33.550Z,35.78
2022-09-21T13:22:23.904Z,35.88
2022-09-21T13:25:15.283Z,36.08
2022-09-21T13:28:09.360Z,36.30
2022-09-21T13:30:43.263Z,36.54
2022-09-21T13:33:18.880Z,36.61
2022-09-21T13:35:48.223Z,36.59
2022-09-21T13:38:34.189Z,36.35
2022-09-21T13:41:03.930Z,36.29
2022-09-21T13:44:04.384Z,36.12
2022-09-21T13:46:34.743Z,36.15
2022-09-21T13:49:10.603Z,36.09
2022-09-21T13:51:57.342Z,36.05
2022-09-21T13:54:38.715Z,36.15
2022-09-21T13:57:23.632Z,36.21
2022-09-21T14:00:07.796Z,36.26
2022-09-21T14:02:38.415Z,36.38
2022-09-21T14:05:32.572Z,36.41
2022-09-21T14:08:03.146Z,36.57
2022-09-21T14:10:32.245Z,36.71
2022-09-21T14:13:00.868Z,36.85
2022-09-21T14:15:27.343Z,36.96
2022-09-21T14:18:36.970Z,37.01
2022-09-21T14:21:09.944Z,37.23
2022-09-21T14:23:38.139Z,37.38
2022-09-21T14:26:41.490Z,37.38
2022-09-21T14:29:34.932Z,37.42
2022-09-21T14:32:04.412Z,37.50
2022-09-21T14:34:36.985Z,37.53
2022-09-21T14:37:13.026Z,37.57
2022-09-21T14:39:44.433Z,37.60
2022-09-21T14:42:17.394Z,37.57
2022-09-21T14:44:44.671Z,37.56
2022-09-21T14:47:29.663Z,37.55
2022-09-21T14:50:15.600Z,37.49
2022-09-21T14:53:01.149Z,37.57
2022-09-21T14:55:58.540Z,37.52
2022-09-21T14:58:50.067Z,37.52
2022-09-21T15:01:43.015Z,37.47
2022-09-21T15:04:45.291Z,37.32
2022-09-21T15:07:56.153Z,37.24
2022-09-21T15:10:55.334Z,37.15
2022-09-21T15:13:53.505Z,36.98
2022-09-21T15:16:38.854Z,36.92
2022-09-21T15:19:26.240Z,36.74
2022-09-21T15:21:56.839Z,36.72
2022-09-21T15:24:34.120Z,36.57
2022-09-21T15:27:15.870Z,36.40
2022-09-21T15:29:49.244Z,36.18
2022-09-21T15:32:24.468Z,35.71
2022-09-21T15:35:15.888Z,35.03
2022-09-21T15:37:43.203Z,34.37
2022-09-21T15:40:18.041Z,33.48
2022-09-21T15:43:09.394Z,32.47
2022-09-21T15:45:59.189Z,31.51
2022-09-21T15:48:29.053Z,30.77
2022-09-21T15:51:24.718Z,29.86
2022-09-21T15:53:56.202Z,29.24
2022-09-21T15:56:26.122Z,28.63
2022-09-21T15:59:09.067Z,28.03
2022-09-21T16:01:47.614Z,27.60
2022-09-21T16:04:18.971Z,27.19
2022-09-21T16:06:57.623Z,26.78
2022-09-21T16:09:24.035Z,26.41
2022-09-21T16:11:52.208Z,26.10
2022-09-21T16:14:38.549Z,25.83
2022-09-21T16:17:14.025Z,25.50
2022-09-21T16:19:55.798Z,25.26
2022-09-21T16:22:29.606Z,25.06
2022-09-21T16:25:00.107Z,24.88
2022-09-21T16:27:32.395Z,24.66
2022-09-21T16:30:01.154Z,24.50
2022-09-21T16:32:29.951Z,24.30
2022-09-21T16:35:18.156Z,24.03
2022-09-21T16:37:44.647Z,23.89
2022-09-21T16:40:11.183Z,23.69
2022-09-21T16:42:38.462Z,23.48
2022-09-21T16:45:24.344Z,23.25
2022-09-21T16:47:53.337Z,23.06
2022-09-21T16:50:20.221Z,22.84
2022-09-21T16:52:47.031Z,22.68
2022-09-21T16:55:15.607Z,22.54
2022-09-21T16:57:46.077Z,22.39
2022-09-21T17:00:13.928Z,22.29
2022-09-21T17:02:42.793Z,22.18
2022-09-21T17:05:10.046Z,22.05
2022-09-21T17:07:36.761Z,21.94
2022-09-21T17:10:12.827Z,21.77
2022-09-21T17:12:39.471Z,21.67
2022-09-21T17:15:07.964Z,21.52
2022-09-21T17:17:34.668Z,21.37
2022-09-21T17:20:07.055Z,21.24
2022-09-21T17:22:33.550Z,21.12
2022-09-21T17:25:00.013Z,20.99
2022-09-21T17:27:29.460Z,20.85
2022-09-21T17:29:56.516Z,20.72
2022-09-21T17:32:24.760Z,20.59
2022-09-21T17:34:58.768Z,20.44
2022-09-21T17:37:25.512Z,20.33
2022-09-21T17:39:53.660Z,20.20
2022-09-21T17:42:25.205Z,20.06
2022-09-21T17:45:20.798Z,19.88
2022-09-21T17:47:50.315Z,19.82
2022-09-21T17:50:25.471Z,19.69
2022-09-21T17:53:11.312Z,19.59
2022-09-21T17:55:41.125Z,19.46
2022-09-21T17:58:19.502Z,19.33
2022-09-21T18:01:07.437Z,19.20
2022-09-21T18:03:41.197Z,19.13
2022-09-21T18:06:09.035Z,19.03
2022-09-21T18:08:37.203Z,18.93
2022-09-21T18:11:28.081Z,18.77
2022-09-21T18:14:31.115Z,18.70
2022-09-21T18:17:32.417Z,18.58
2022-09-21T18:20:10.900Z,18.54
2022-09-21T18:22:56.119Z,18.40
2022-09-21T18:25:47.765Z,18.34
2022-09-21T18:28:44.179Z,18.25
2022-09-21T18:31:41.963Z,18.18
2022-09-21T18:34:15.403Z,18.08
2022-09-21T18:36:48.499Z,18.00
2022-09-21T18:39:17.599Z,17.93
2022-09-21T18:41:55.861Z,17.90
2022-09-21T18:44:41.921Z,17.74
2022-09-21T18:47:22.372Z,17.63
2022-09-21T18:49:59.012Z,17.56
2022-09-21T18:52:35.334Z,17.48
2022-09-21T18:55:02.360Z,17.41
2022-09-21T18:57:32.457Z,17.34
2022-09-21T18:59:59.868Z,17.26
2022-09-21T19:02:27.290Z,17.21
2022-09-21T19:04:54.188Z,17.14
2022-09-21T19:07:46.991Z,17.03
2022-09-21T19:10:16.217Z,17.01
2022-09-21T19:12:52.292Z,16.94
2022-09-21T19:15:59.362Z,16.89
2022-09-21T19:18:46.431Z,16.83
2022-09-21T19:21:30.263Z,16.80
2022-09-21T19:23:56.709Z,16.74
2022-09-21T19:26:29.759Z,16.68
2022-09-21T19:29:13.024Z,16.63
2022-09-21T19:31:40.000Z,16.65
2022-09-21T19:34:19.733Z,16.54
2022-09-21T19:36:50.112Z,16.54
2022-09-21T19:39:16.912Z,16.47
2022-09-21T19:41:43.446Z,16.45
2022-09-21T19:44:18.020Z,16.39
2022-09-21T19:47:09.745Z,16.31
2022-09-21T19:50:03.779Z,16.30
2022-09-21T19:52:34.552Z,16.28
2022-09-21T19:55:20.683Z,16.27
2022-09-21T19:58:06.074Z,16.24
2022-09-21T20:00:32.798Z,16.23
2022-09-21T20:03:09.071Z,16.20
2022-09-21T20:06:11.377Z,16.15
2022-09-21T20:08:56.259Z,16.15
2022-09-21T20:11:34.846Z,16.11
2022-09-21T20:14:18.721Z,16.06
2022-09-21T20:16:53.376Z,16.02
2022-09-21T20:19:49.177Z,15.97
2022-09-21T20:22:17.873Z,15.96
2022-09-21T20:24:53.197Z,15.92
2022-09-21T20:27:28.841Z,15.86
2022-09-21T20:29:55.349Z,15.86
2022-09-21T20:32:22.818Z,15.83
2022-09-21T20:34:50.278Z,15.78
2022-09-21T20:37:20.306Z,15.75
2022-09-21T20:39:46.792Z,15.72
2022-09-21T20:42:22.086Z,15.66
2022-09-21T20:44:48.594Z,15.66
2022-09-21T20:47:15.081Z,15.62
2022-09-21T20:49:41.674Z,15.60
2022-09-21T20:52:10.367Z,15.57
2022-09-21T20:54:36.828Z,15.54
2022-09-21T20:57:03.503Z,15.53
2022-09-21T20:59:29.977Z,15.52
2022-09-21T21:01:56.597Z,15.49
2022-09-21T21:04:23.498Z,15.47
2022-09-21T21:06:50.023Z,15.44
2022-09-21T21:09:16.597Z,15.40
2022-09-21T21:11:43.291Z,15.38
2022-09-21T21:14:09.764Z,15.36
2022-09-21T21:16:37.369Z,15.33
2022-09-21T21:19:04.547Z,15.30
2022-09-21T21:21:31.157Z,15.27
2022-09-21T21:24:16.556Z,15.23
2022-09-21T21:27:02.242Z,15.21
2022-09-21T21:29:30.169Z,15.17
2022-09-21T21:31:56.766Z,15.15
2022-09-21T21:34:23.351Z,15.12
2022-09-21T21:36:49.844Z,15.09
2022-09-21T21:39:16.456Z,15.07
2022-09-21T21:41:43.492Z,15.05
2022-09-21T21:44:11.580Z,15.03
2022-09-21T21:46:38.147Z,15.01
2022-09-21T21:49:05.042Z,15.00
2022-09-21T21:51:31.563Z,14.98
2022-09-21T21:53:58.170Z,14.96
2022-09-21T21:56:24.705Z,14.94
2022-09-21T21:58:54.722Z,14.93
2022-09-21T22:01:27.027Z,14.88
2022-09-21T22:03:58.904Z,14.88
2022-09-21T22:06:26.914Z,14.87
2022-09-21T22:08:55.313Z,14.83
2022-09-21T22:11:23.684Z,14.82
2022-09-21T22:13:50.548Z,14.81
2022-09-21T22:16:22.084Z,14.78
2022-09-21T22:18:50.062Z,14.78
2022-09-21T22:21:53.158Z,14.71
2022-09-21T22:24:21.113Z,14.75
2022-09-21T22:26:48.625Z,14.78
2022-09-21T22:29:17.138Z,14.74
2022-09-21T22:31:46.625Z,14.69
2022-09-21T22:34:14.629Z,14.66
2022-09-21T22:36:41.230Z,14.62
2022-09-21T22:39:08.480Z,14.58
2022-09-21T22:41:40.179Z,14.53
2022-09-21T22:44:07.681Z,14.51
2022-09-21T22:46:35.131Z,14.48
2022-09-21T22:49:02.169Z,14.43
2022-09-21T22:51:29.672Z,14.40
2022-09-21T22:53:56.643Z,14.37
2022-09-21T22:56:28.857Z,14.34
2022-09-21T22:58:58.716Z,14.33
2022-09-21T23:01:27.193Z,14.32
2022-09-21T23:03:59.201Z,14.30
2022-09-21T23:06:28.207Z,14.29
2022-09-21T23:08:56.414Z,14.29
2022-09-21T23:11:24.183Z,14.28
2022-09-21T23:13:50.738Z,14.26
2022-09-21T23:16:18.049Z,14.25
2022-09-21T23:18:44.807Z,14.23
2022-09-21T23:21:14.240Z,14.22
2022-09-21T23:23:41.374Z,14.20
2022-09-21T23:26:12.669Z,14.17
2022-09-21T23:28:41.887Z,14.15
2022-09-21T23:31:11.205Z,14.13
2022-09-21T23:33:41.469Z,14.10
2022-09-21T23:36:10.263Z,14.07
2022-09-21T23:38:37.245Z,14.04
2022-09-21T23:41:12.341Z,14.00
2022-09-21T23:43:40.510Z,13.99
2022-09-21T23:46:08.751Z,13.98
2022-09-21T23:48:35.752Z,13.94
2022-09-21T23:51:03.047Z,13.92
2022-09-21T23:53:30.014Z,13.90
2022-09-21T23:55:57.814Z,13.89
2022-09-21T23:58:25.554Z,13.87
